Time;durP1;ratioP1;P1;durP2;ratioP2;P2;SDS_P1;SDS_P2;PMS_P1;PMS_P2;Temp;Humidity;BMP_temperature;BMP_pressure;BME280_temperature;BME280_humidity;BME280_pressure;Samples;Min_cycle;Max_cycle;Signal;HPM_P1;HPM_P2
2023/02/13 00:02:14;;;;;;;;;;;;;;;2.00;100.00;100760.03;4997042;28;19963;-62
2023/02/13 00:04:41;;;;;;;;;;;;;;;1.96;100.00;100753.09;4998360;28;20298;-61
2023/02/13 00:07:07;;;;;;;;;;;;;;;1.89;100.00;100753.59;4994922;28;20281;-61
2023/02/13 00:09:33;;;;;;;;;;;;;;;1.82;100.00;100749.91;4996698;28;19971;-66
2023/02/13 00:11:58;;;;;;;;;;;;;;;1.72;100.00;100747.69;4998061;28;19960;-60
2023/02/13 00:14:24;;;;;;;;;;;;;;;1.70;100.00;100754.31;4993424;28;19947;-60
2023/02/13 00:16:50;;;;;;;;;;;;;;;1.69;100.00;100750.94;4999415;28;19937;-60
2023/02/13 00:19:15;;;;;;;;;;;;;;;1.67;100.00;100755.03;5003112;28;19929;-60
2023/02/13 00:21:41;;;;;;;;;;;;;;;1.52;100.00;100754.28;4997580;28;20762;-62
2023/02/13 00:24:06;;;;;;;;;;;;;;;1.48;100.00;100762.50;4997080;28;19943;-60
2023/02/13 00:26:35;;;;;;;;;;;;;;;1.40;100.00;100766.25;5001157;28;19940;-62
2023/02/13 00:29:01;;;;;;;;;;;;;;;1.37;100.00;100761.06;4999207;28;20406;-60
2023/02/13 00:31:26;;;;;;;;;;;;;;;1.34;100.00;100755.84;5000302;28;20601;-60
2023/02/13 00:33:52;;;;;;;;;;;;;;;1.22;100.00;100758.63;5003687;28;19971;-60
2023/02/13 00:36:19;;;;;;;;;;;;;;;1.14;100.00;100759.88;5001470;28;19940;-61
2023/02/13 00:38:44;;;;;;;;;;;;;;;1.05;100.00;100759.41;4999401;28;20006;-62
2023/02/13 00:41:11;;;;;;;;;;;;;;;0.95;100.00;100758.81;5031488;28;19936;-60
2023/02/13 00:43:36;;;;;;;;;;;;;;;0.81;100.00;100764.00;4997646;28;19929;-61
2023/02/13 00:46:02;;;;;;;;;;;;;;;0.80;100.00;100766.47;4996526;28;19944;-62
2023/02/13 00:48:28;;;;;;;;;;;;;;;0.70;100.00;100770.13;5000265;28;19951;-61
2023/02/13 00:50:54;;;;;;;;;;;;;;;0.65;100.00;100768.13;5000250;28;20116;-61
2023/02/13 00:53:20;;;;;;;;;;;;;;;0.72;100.00;100773.59;5030219;28;19930;-61
2023/02/13 00:55:45;;;;;;;;;;;;;;;0.67;100.00;100769.09;4998371;28;19944;-61
2023/02/13 00:58:11;;;;;;;;;;;;;;;0.59;100.00;100772.88;5032356;28;20357;-61
2023/02/13 01:00:37;;;;;;;;;;;;;;;0.61;100.00;100764.56;5000791;28;20399;-62
2023/02/13 01:03:03;;;;;;;;;;;;;;;0.59;100.00;100761.13;5030339;28;19943;-61
2023/02/13 01:05:29;;;;;;;;;;;;;;;0.61;100.00;100767.09;4996470;28;20017;-62
2023/02/13 01:07:55;;;;;;;;;;;;;;;0.55;100.00;100761.75;4998590;28;20010;-61
2023/02/13 01:10:20;;;;;;;;;;;;;;;0.54;100.00;100764.16;5000153;28;20987;-62
2023/02/13 01:12:47;;;;;;;;;;;;;;;0.54;100.00;100761.63;4999980;28;19999;-61
2023/02/13 01:15:12;;;;;;;;;;;;;;;0.64;100.00;100762.22;4998198;28;20047;-62
2023/02/13 01:17:40;;;;;;;;;;;;;;;0.57;100.00;100757.63;4996817;28;19926;-60
2023/02/13 01:20:07;;;;;;;;;;;;;;;0.53;100.00;100770.00;4996102;28;20295;-60
2023/02/13 01:22:32;;;;;;;;;;;;;;;0.49;100.00;100765.56;5026772;28;19967;-63
2023/02/13 01:24:57;;;;;;;;;;;;;;;0.55;100.00;100761.75;4998938;28;19929;-61
2023/02/13 01:27:24;;;;;;;;;;;;;;;0.46;100.00;100766.28;4998796;28;19936;-60
2023/02/13 01:29:49;;;;;;;;;;;;;;;0.44;100.00;100766.19;4993464;28;19953;-61
2023/02/13 01:32:16;;;;;;;;;;;;;;;0.43;100.00;100763.56;4996445;28;19967;-61
2023/02/13 01:34:41;;;;;;;;;;;;;;;0.45;100.00;100764.53;5000847;28;20296;-61
2023/02/13 01:37:06;;;;;;;;;;;;;;;0.36;100.00;100758.97;4998236;28;20029;-60
2023/02/13 01:39:32;;;;;;;;;;;;;;;0.28;100.00;100762.72;4996756;28;19996;-60
2023/02/13 01:41:57;;;;;;;;;;;;;;;0.21;100.00;100756.44;4996632;28;19968;-60
2023/02/13 01:44:41;;;;;;;;;;;;;;;0.19;100.00;100763.06;5000152;28;20300;-63
2023/02/13 01:47:08;;;;;;;;;;;;;;;0.25;100.00;100757.50;4997098;28;20044;-59
2023/02/13 01:49:34;;;;;;;;;;;;;;;0.14;100.00;100764.47;4999472;28;20495;-62
2023/02/13 01:52:00;;;;;;;;;;;;;;;0.11;100.00;100763.44;5006167;28;20028;-60
2023/02/13 01:54:31;;;;;;;;;;;;;;;0.09;100.00;100754.88;4997471;28;19944;-61
2023/02/13 01:57:07;;;;;;;;;;;;;;;0.18;100.00;100752.88;5029571;28;20024;-61
2023/02/13 01:59:39;;;;;;;;;;;;;;;0.24;100.00;100751.59;4999746;28;19935;-60
2023/02/13 02:02:05;;;;;;;;;;;;;;;0.26;100.00;100754.19;4997543;28;19999;-61
2023/02/13 02:04:32;;;;;;;;;;;;;;;0.18;100.00;100751.25;4992315;28;19934;-62
2023/02/13 02:07:01;;;;;;;;;;;;;;;0.14;100.00;100748.47;4997921;28;19926;-62
2023/02/13 02:09:32;;;;;;;;;;;;;;;0.12;100.00;100743.34;5001636;28;19947;-62
2023/02/13 02:12:00;;;;;;;;;;;;;;;0.17;100.00;100743.59;5012413;28;19960;-62
2023/02/13 02:14:26;;;;;;;;;;;;;;;0.17;100.00;100748.66;5014747;28;20391;-62
2023/02/13 02:16:54;;;;;;;;;;;;;;;0.17;100.00;100738.56;4998464;28;20234;-62
2023/02/13 02:19:39;;;;;;;;;;;;;;;0.13;100.00;100742.53;5002844;28;20429;-61
2023/02/13 02:22:23;;;;;;;;;;;;;;;0.08;100.00;100748.13;4991114;28;20004;-60
2023/02/13 02:25:01;;;;;;;;;;;;;;;0.03;100.00;100749.53;4991817;28;19947;-62
2023/02/13 02:27:28;;;;;;;;;;;;;;;0.13;100.00;100746.75;5028034;28;20422;-60
2023/02/13 02:30:16;;;;;;;;;;;;;;;0.09;100.00;100744.81;4996657;28;20239;-61
2023/02/13 02:33:00;;;;;;;;;;;;;;;0.11;100.00;100738.22;4995120;28;19975;-61
2023/02/13 02:35:40;;;;;;;;;;;;;;;0.18;100.00;100737.75;4991807;28;20359;-61
2023/02/13 02:38:21;;;;;;;;;;;;;;;0.17;100.00;100734.38;5029217;28;20425;-61
2023/02/13 02:41:40;;;;;;;;;;;;;;;0.23;100.00;100736.38;4991902;28;20064;-61
2023/02/13 02:44:10;;;;;;;;;;;;;;;0.27;100.00;100738.28;4961562;28;19949;-60
2023/02/13 02:49:57;;;;;;;;;;;;;;;0.43;100.00;100725.72;4979807;28;20380;-62
2023/02/13 02:52:25;;;;;;;;;;;;;;;0.77;100.00;100721.69;4945212;28;19967;-62
2023/02/13 02:55:05;;;;;;;;;;;;;;;0.85;100.00;100730.56;4977372;28;20253;-62
2023/02/13 03:06:11;;;;;;;;;;;;;;;0.79;100.00;100735.28;4943958;28;20028;-62
2023/02/13 03:14:09;;;;;;;;;;;;;;;0.83;100.00;100727.09;4961349;28;19968;-60
2023/02/13 03:22:28;;;;;;;;;;;;;;;0.98;100.00;100732.06;4992894;28;19940;-62
2023/02/13 03:25:35;;;;;;;;;;;;;;;1.14;100.00;100724.53;4995130;28;20067;-55
2023/02/13 03:30:52;;;;;;;;;;;;;;;1.34;100.00;100734.00;4997133;28;20025;-60
2023/02/13 03:33:17;;;;;;;;;;;;;;;1.29;100.00;100726.97;4992901;28;19984;-58
2023/02/13 03:38:41;;;;;;;;;;;;;;;1.34;100.00;100717.97;4994368;28;20048;-60
2023/02/13 03:41:18;;;;;;;;;;;;;;;1.32;100.00;100717.00;4997969;28;20021;-60
2023/02/13 03:44:02;;;;;;;;;;;;;;;1.34;100.00;100707.84;4995232;28;19960;-60
2023/02/13 03:46:32;;;;;;;;;;;;;;;1.38;100.00;100718.19;4992939;28;19964;-59
2023/02/13 03:51:47;;;;;;;;;;;;;;;1.60;100.00;100716.75;4999704;28;20496;-58
2023/02/13 03:59:55;;;;;;;;;;;;;;;1.64;100.00;100716.97;4998038;28;19937;-62
2023/02/13 04:02:24;;;;;;;;;;;;;;;1.75;100.00;100717.50;5000014;28;20422;-59
2023/02/13 04:04:54;;;;;;;;;;;;;;;1.82;100.00;100719.56;4998429;28;19971;-60
2023/02/13 04:07:31;;;;;;;;;;;;;;;1.80;100.00;100722.00;4999361;28;19939;-60
2023/02/13 04:09:58;;;;;;;;;;;;;;;1.80;100.00;100719.47;5001710;28;20028;-60
2023/02/13 04:12:29;;;;;;;;;;;;;;;1.82;100.00;100712.81;5000793;28;19976;-61
2023/02/13 04:15:01;;;;;;;;;;;;;;;1.85;100.00;100717.16;4998234;28;19961;-60
2023/02/13 04:17:32;;;;;;;;;;;;;;;1.92;100.00;100718.31;4999016;28;20041;-61
2023/02/13 04:19:58;;;;;;;;;;;;;;;1.95;100.00;100715.97;4999297;28;19943;-61
2023/02/13 04:22:23;;;;;;;;;;;;;;;1.99;100.00;100717.84;4999130;28;19963;-62
2023/02/13 04:24:49;;;;;;;;;;;;;;;2.02;100.00;100712.94;5000778;28;20087;-58
2023/02/13 04:27:16;;;;;;;;;;;;;;;2.07;100.00;100711.50;4999458;28;20403;-59
2023/02/13 04:29:41;;;;;;;;;;;;;;;2.18;100.00;100705.28;5000253;28;20396;-59
2023/02/13 04:32:08;;;;;;;;;;;;;;;2.29;100.00;100706.66;4999967;28;19925;-63
2023/02/13 04:34:34;;;;;;;;;;;;;;;2.24;100.00;100703.91;4999962;28;19951;-59
2023/02/13 04:37:00;;;;;;;;;;;;;;;2.29;100.00;100704.97;4999604;28;19942;-59
2023/02/13 04:39:25;;;;;;;;;;;;;;;2.31;100.00;100705.06;4998823;28;19980;-59
2023/02/13 04:41:51;;;;;;;;;;;;;;;2.41;100.00;100711.44;4997125;28;20269;-60
2023/02/13 04:44:16;;;;;;;;;;;;;;;2.38;100.00;100703.72;5001320;28;20371;-60
2023/02/13 04:46:42;;;;;;;;;;;;;;;2.33;100.00;100708.53;4998349;28;19947;-59
2023/02/13 04:49:08;;;;;;;;;;;;;;;2.40;100.00;100704.63;5000845;28;19946;-59
2023/02/13 04:51:34;;;;;;;;;;;;;;;2.39;100.00;100705.41;4996998;28;20082;-60
2023/02/13 04:53:59;;;;;;;;;;;;;;;2.47;100.00;100715.09;4997153;28;20519;-59
2023/02/13 04:56:25;;;;;;;;;;;;;;;2.54;100.00;100701.09;4999484;28;19959;-59
2023/02/13 04:58:50;;;;;;;;;;;;;;;2.68;100.00;100713.56;5000721;28;20037;-59
2023/02/13 05:01:16;;;;;;;;;;;;;;;2.76;100.00;100712.25;4998652;28;20362;-60
2023/02/13 05:03:41;;;;;;;;;;;;;;;2.71;100.00;100713.72;4997554;28;19961;-59
2023/02/13 05:06:07;;;;;;;;;;;;;;;2.68;100.00;100705.97;4999155;28;19963;-60
2023/02/13 05:08:33;;;;;;;;;;;;;;;2.65;100.00;100700.75;4998157;28;19995;-59
2023/02/13 05:10:58;;;;;;;;;;;;;;;2.72;100.00;100701.91;4996269;28;19940;-59
2023/02/13 05:13:24;;;;;;;;;;;;;;;2.67;100.00;100698.31;4993812;28;19964;-59
2023/02/13 05:15:51;;;;;;;;;;;;;;;2.71;100.00;100700.19;4998784;28;20043;-60
2023/02/13 05:18:16;;;;;;;;;;;;;;;2.75;100.00;100699.53;4998757;28;19940;-59
2023/02/13 05:20:42;;;;;;;;;;;;;;;2.68;100.00;100700.91;4997895;28;20403;-59
2023/02/13 05:23:21;;;;;;;;;;;;;;;2.66;100.00;100692.38;4997889;28;19953;-59
2023/02/13 05:25:47;;;;;;;;;;;;;;;2.64;100.00;100688.91;4998143;28;19943;-59
2023/02/13 05:31:07;;;;;;;;;;;;;;;2.65;100.00;100687.22;4959870;28;19961;-58
2023/02/13 05:33:33;;;;;;;;;;;;;;;2.90;100.00;100681.59;4956037;28;20414;-59
2023/02/13 05:35:58;;;;;;;;;;;;;;;3.07;100.00;100688.28;4958073;28;20043;-59
2023/02/13 05:38:24;;;;;;;;;;;;;;;3.23;100.00;100680.53;4960893;28;20569;-59
2023/02/13 05:40:49;;;;;;;;;;;;;;;3.39;100.00;100689.69;4960683;28;19926;-61
2023/02/13 05:43:14;;;;;;;;;;;;;;;3.36;100.00;100687.88;4956761;28;19969;-58
2023/02/13 05:45:40;;;;;;;;;;;;;;;3.35;100.00;100692.88;4957979;28;19983;-58
2023/02/13 05:48:05;;;;;;;;;;;;;;;3.23;100.00;100691.53;4957820;28;19930;-59
2023/02/13 05:50:31;;;;;;;;;;;;;;;3.12;100.00;100695.28;4958339;28;19953;-59
2023/02/13 05:52:56;;;;;;;;;;;;;;;3.13;100.00;100693.63;4958813;28;20101;-59
2023/02/13 05:55:22;;;;;;;;;;;;;;;3.05;100.00;100688.22;4960440;28;20546;-60
2023/02/13 05:57:47;;;;;;;;;;;;;;;3.01;100.00;100686.34;4960499;28;20040;-60
2023/02/13 06:00:13;;;;;;;;;;;;;;;2.91;100.00;100704.47;4957479;28;19948;-57
2023/02/13 06:02:39;;;;;;;;;;;;;;;2.90;100.00;100704.41;4957333;28;19968;-56
2023/02/13 06:05:04;;;;;;;;;;;;;;;2.84;100.00;100704.13;4957746;28;19934;-57
2023/02/13 06:07:30;;;;;;;;;;;;;;;2.75;100.00;100702.06;4975846;28;19951;-58
2023/02/13 06:09:58;;;;;;;;;;;;;;;2.80;100.00;100707.34;4997949;28;20607;-59
2023/02/13 06:12:23;;;;;;;;;;;;;;;2.82;100.00;100701.53;4996568;28;20344;-60
2023/02/13 06:14:49;;;;;;;;;;;;;;;2.83;100.00;100710.00;4995783;28;19962;-58
2023/02/13 06:17:15;;;;;;;;;;;;;;;2.75;100.00;100707.13;4994292;28;20430;-59
2023/02/13 06:19:40;;;;;;;;;;;;;;;2.77;100.00;100713.09;4994943;28;20361;-57
2023/02/13 06:22:05;;;;;;;;;;;;;;;2.79;100.00;100709.00;4994216;28;19990;-54
2023/02/13 06:24:32;;;;;;;;;;;;;;;2.75;100.00;100713.06;5010680;28;20059;-58
2023/02/13 06:26:57;;;;;;;;;;;;;;;2.80;100.00;100714.94;4997606;28;20103;-58
2023/02/13 06:29:23;;;;;;;;;;;;;;;2.83;100.00;100717.59;4997776;28;19954;-57
2023/02/13 06:31:48;;;;;;;;;;;;;;;2.89;100.00;100720.38;4997780;28;20477;-56
2023/02/13 06:34:14;;;;;;;;;;;;;;;2.92;100.00;100718.00;4998559;28;20499;-58
2023/02/13 06:36:41;;;;;;;;;;;;;;;2.86;100.00;100713.53;4997608;28;19949;-57
2023/02/13 06:39:08;;;;;;;;;;;;;;;2.88;100.00;100719.56;4996951;28;19949;-58
2023/02/13 06:41:34;;;;;;;;;;;;;;;2.92;100.00;100725.63;4998301;28;20007;-56
2023/02/13 06:43:59;;;;;;;;;;;;;;;2.98;100.00;100721.66;4998587;28;19964;-53
2023/02/13 06:46:25;;;;;;;;;;;;;;;3.05;100.00;100717.75;4998345;28;19942;-55
2023/02/13 06:48:50;;;;;;;;;;;;;;;3.20;100.00;100720.97;4998420;28;19963;-51
2023/02/13 06:51:16;;;;;;;;;;;;;;;3.33;100.00;100725.75;5003418;28;20069;-55
2023/02/13 06:53:41;;;;;;;;;;;;;;;3.55;100.00;100720.81;4998802;28;19968;-53
2023/02/13 06:56:07;;;;;;;;;;;;;;;3.69;100.00;100727.31;4998366;28;20452;-55
2023/02/13 06:58:33;;;;;;;;;;;;;;;3.76;100.00;100719.97;4996886;28;19949;-55
2023/02/13 07:00:58;;;;;;;;;;;;;;;3.83;100.00;100722.81;4997878;28;20426;-54
2023/02/13 07:03:24;;;;;;;;;;;;;;;3.94;100.00;100718.22;4994804;28;19949;-53
2023/02/13 07:05:50;;;;;;;;;;;;;;;3.96;100.00;100721.66;4992681;28;19952;-55
2023/02/13 07:08:16;;;;;;;;;;;;;;;3.99;100.00;100731.91;4996294;28;20066;-54
2023/02/13 07:10:42;;;;;;;;;;;;;;;4.01;100.00;100741.34;4994046;28;20404;-55
2023/02/13 07:13:08;;;;;;;;;;;;;;;4.11;100.00;100735.84;4993740;28;19964;-55
2023/02/13 07:15:33;;;;;;;;;;;;;;;4.23;100.00;100727.00;4996204;28;20563;-56
2023/02/13 07:17:59;;;;;;;;;;;;;;;4.23;100.00;100729.53;4997444;28;19944;-52
2023/02/13 07:20:25;;;;;;;;;;;;;;;4.29;100.00;100729.75;4998470;28;19943;-54
2023/02/13 07:22:50;;;;;;;;;;;;;;;4.35;100.00;100733.41;4998614;28;19974;-55
2023/02/13 07:25:16;;;;;;;;;;;;;;;4.47;100.00;100736.44;4996977;28;20013;-57
2023/02/13 07:27:41;;;;;;;;;;;;;;;4.47;100.00;100727.94;4994735;28;19969;-57
2023/02/13 07:30:07;;;;;;;;;;;;;;;4.50;100.00;100730.59;4994924;28;20402;-53
2023/02/13 07:32:32;;;;;;;;;;;;;;;4.57;100.00;100746.16;4995961;28;20441;-54
2023/02/13 07:34:58;;;;;;;;;;;;;;;4.65;100.00;100733.75;4995978;28;20079;-54
2023/02/13 07:37:23;;;;;;;;;;;;;;;4.54;100.00;100742.63;4996365;28;20325;-52
2023/02/13 07:39:49;;;;;;;;;;;;;;;4.55;100.00;100742.69;4997403;28;20428;-54
2023/02/13 07:42:14;;;;;;;;;;;;;;;4.52;100.00;100746.78;4996556;28;19970;-53
2023/02/13 07:44:39;;;;;;;;;;;;;;;4.59;100.00;100744.53;4996727;28;19968;-55
2023/02/13 07:47:05;;;;;;;;;;;;;;;4.68;100.00;100740.59;4996520;28;20000;-55
2023/02/13 07:49:31;;;;;;;;;;;;;;;4.65;100.00;100735.41;4997034;28;20305;-53
2023/02/13 07:51:57;;;;;;;;;;;;;;;4.70;100.00;100741.53;4994580;28;19971;-54
2023/02/13 07:54:22;;;;;;;;;;;;;;;4.73;100.00;100745.06;4996786;28;20081;-52
2023/02/13 07:56:48;;;;;;;;;;;;;;;4.69;100.00;100740.69;4997414;28;19947;-54
2023/02/13 07:59:13;;;;;;;;;;;;;;;4.72;100.00;100735.69;4997369;28;20958;-55
2023/02/13 08:01:39;;;;;;;;;;;;;;;4.68;100.00;100743.13;4995713;28;20260;-55
2023/02/13 08:04:04;;;;;;;;;;;;;;;4.68;100.00;100740.59;4995966;28;19973;-57
2023/02/13 08:06:30;;;;;;;;;;;;;;;4.65;100.00;100748.13;4994572;28;19949;-55
2023/02/13 08:11:55;;;;;;;;;;;;;;;4.74;100.00;100749.34;4994565;28;19956;-56
2023/02/13 08:14:24;;;;;;;;;;;;;;;4.79;100.00;100747.84;5025296;28;19988;-56
2023/02/13 08:16:49;;;;;;;;;;;;;;;4.88;100.00;100744.78;4997028;28;19932;-56
2023/02/13 08:19:15;;;;;;;;;;;;;;;4.98;100.00;100754.47;4982288;28;20315;-55
2023/02/13 08:21:41;;;;;;;;;;;;;;;5.01;100.00;100744.41;4995188;28;19996;-57
2023/02/13 08:24:07;;;;;;;;;;;;;;;5.01;100.00;100746.94;4994777;28;19958;-57
2023/02/13 08:26:33;;;;;;;;;;;;;;;5.01;100.00;100750.38;4995478;28;19948;-59
2023/02/13 08:28:59;;;;;;;;;;;;;;;5.05;100.00;100753.88;4995910;28;20422;-59
2023/02/13 08:31:24;;;;;;;;;;;;;;;5.06;100.00;100748.88;4992408;28;20952;-59
2023/02/13 08:33:49;;;;;;;;;;;;;;;5.06;100.00;100750.53;4995904;28;19944;-57
2023/02/13 08:36:15;;;;;;;;;;;;;;;5.18;100.00;100750.97;4995918;28;19978;-57
2023/02/13 08:38:41;;;;;;;;;;;;;;;5.28;100.00;100747.97;5001001;28;19943;-57
2023/02/13 08:41:06;;;;;;;;;;;;;;;5.36;100.00;100748.25;4984258;28;20666;-57
2023/02/13 08:43:32;;;;;;;;;;;;;;;5.45;100.00;100749.44;4998885;28;19968;-57
2023/02/13 08:45:58;;;;;;;;;;;;;;;5.33;100.00;100748.13;5000829;28;20324;-57
2023/02/13 08:48:25;;;;;;;;;;;;;;;5.25;100.00;100752.97;4998187;28;19945;-59
2023/02/13 08:50:51;;;;;;;;;;;;;;;5.23;100.00;100749.47;5009973;28;19944;-57
2023/02/13 08:53:16;;;;;;;;;;;;;;;5.19;100.00;100752.72;5001061;28;19969;-59
2023/02/13 08:55:42;;;;;;;;;;;;;;;5.15;100.00;100750.00;5000654;28;20525;-56
2023/02/13 08:58:07;;;;;;;;;;;;;;;5.19;100.00;100750.19;4999197;28;19968;-58
2023/02/13 09:00:32;;;;;;;;;;;;;;;5.34;100.00;100742.25;4999956;28;19929;-58
2023/02/13 09:03:01;;;;;;;;;;;;;;;5.40;100.00;100750.94;4999213;28;20002;-59
2023/02/13 09:05:27;;;;;;;;;;;;;;;5.37;100.00;100753.41;5000010;28;19949;-57
2023/02/13 09:07:53;;;;;;;;;;;;;;;5.43;100.00;100745.13;4999261;28;20283;-58
2023/02/13 09:10:21;;;;;;;;;;;;;;;5.52;100.00;100756.47;4999021;28;19947;-58
2023/02/13 09:12:52;;;;;;;;;;;;;;;5.62;100.00;100755.13;4998925;28;19964;-59
2023/02/13 09:15:18;;;;;;;;;;;;;;;5.65;100.00;100761.97;4999296;28;20016;-60
2023/02/13 09:17:43;;;;;;;;;;;;;;;5.62;100.00;100750.03;5000998;28;20099;-59
2023/02/13 09:20:09;;;;;;;;;;;;;;;5.74;100.00;100753.00;4999386;28;20059;-59
2023/02/13 09:22:34;;;;;;;;;;;;;;;5.64;100.00;100750.09;4996719;28;20713;-58
2023/02/13 09:25:03;;;;;;;;;;;;;;;5.72;100.00;100756.31;4997008;28;19992;-58
2023/02/13 09:27:29;;;;;;;;;;;;;;;5.86;100.00;100755.06;5000951;28;19985;-56
2023/02/13 09:29:54;;;;;;;;;;;;;;;5.76;100.00;100753.06;5000094;28;19965;-57
2023/02/13 09:32:20;;;;;;;;;;;;;;;5.86;100.00;100757.63;4997917;28;20394;-59
2023/02/13 09:34:45;;;;;;;;;;;;;;;5.96;100.00;100767.34;4999913;28;19993;-58
2023/02/13 09:37:11;;;;;;;;;;;;;;;6.03;100.00;100758.22;4997941;28;19950;-59
2023/02/13 09:39:36;;;;;;;;;;;;;;;5.99;100.00;100764.91;4998234;28;19997;-58
2023/02/13 09:42:04;;;;;;;;;;;;;;;6.15;100.00;100763.75;4997987;28;20070;-58
2023/02/13 09:44:36;;;;;;;;;;;;;;;6.16;100.00;100770.53;4998457;28;20828;-57
2023/02/13 09:47:05;;;;;;;;;;;;;;;6.39;100.00;100767.94;4998627;28;19957;-58
2023/02/13 09:49:32;;;;;;;;;;;;;;;6.51;100.00;100766.59;4996328;28;19967;-58
2023/02/13 09:51:57;;;;;;;;;;;;;;;6.44;100.00;100770.66;4995674;28;20416;-58
2023/02/13 09:54:25;;;;;;;;;;;;;;;6.66;100.00;100754.34;4996571;28;19944;-63
2023/02/13 09:56:59;;;;;;;;;;;;;;;6.44;100.00;100768.09;4997481;28;19992;-59
2023/02/13 09:59:44;;;;;;;;;;;;;;;6.38;100.00;100768.75;4999419;28;19942;-58
2023/02/13 10:02:15;;;;;;;;;;;;;;;6.34;100.00;100769.47;4999586;28;20535;-58
2023/02/13 10:04:51;;;;;;;;;;;;;;;6.30;100.00;100766.78;4996911;28;19948;-58
2023/02/13 10:07:37;;;;;;;;;;;;;;;6.33;100.00;100772.84;4995933;28;20508;-57
2023/02/13 10:10:12;;;;;;;;;;;;;;;6.49;100.00;100776.75;4997928;28;19939;-58
2023/02/13 10:12:50;;;;;;;;;;;;;;;6.56;100.00;100776.13;4997402;28;19955;-57
2023/02/13 10:15:44;;;;;;;;;;;;;;;6.43;100.00;100777.41;4998029;28;19942;-60
2023/02/13 10:18:13;;;;;;;;;;;;;;;6.31;100.00;100771.06;4992165;28;19955;-59
2023/02/13 10:20:47;;;;;;;;;;;;;;;6.40;100.00;100777.31;4995871;28;20499;-57
2023/02/13 10:23:19;;;;;;;;;;;;;;;6.40;100.00;100773.91;4995718;28;19943;-58
2023/02/13 10:25:47;;;;;;;;;;;;;;;6.46;100.00;100773.22;5007029;28;20332;-58
2023/02/13 10:28:15;;;;;;;;;;;;;;;6.45;100.00;100772.34;4998658;28;19964;-58
2023/02/13 10:31:01;;;;;;;;;;;;;;;6.39;100.00;100782.38;4996892;28;19944;-59
2023/02/13 10:33:35;;;;;;;;;;;;;;;6.54;100.00;100777.75;4997808;28;19974;-57
2023/02/13 10:36:01;;;;;;;;;;;;;;;6.66;100.00;100774.75;4997099;28;20080;-58
2023/02/13 10:38:28;;;;;;;;;;;;;;;6.56;100.00;100772.69;4996579;28;20321;-56
2023/02/13 10:41:03;;;;;;;;;;;;;;;6.57;100.00;100772.75;4994152;28;20426;-56
2023/02/13 10:43:36;;;;;;;;;;;;;;;6.68;100.00;100771.41;4996305;28;19996;-58
2023/02/13 10:46:18;;;;;;;;;;;;;;;6.66;100.00;100773.03;4997854;28;19926;-58
2023/02/13 10:48:47;;;;;;;;;;;;;;;6.76;100.00;100754.66;4997628;28;20775;-59
2023/02/13 10:51:25;;;;;;;;;;;;;;;6.75;100.00;100758.03;4998207;28;20378;-55
2023/02/13 10:53:53;;;;;;;;;;;;;;;6.66;100.00;100757.72;4999105;28;20003;-58
2023/02/13 10:56:36;;;;;;;;;;;;;;;6.76;100.00;100749.56;4999842;28;20455;-60
2023/02/13 10:59:10;;;;;;;;;;;;;;;6.77;100.00;100750.44;4997975;28;19979;-60
2023/02/13 11:01:40;;;;;;;;;;;;;;;6.78;100.00;100749.63;4996362;28;20309;-60
2023/02/13 11:04:08;;;;;;;;;;;;;;;6.72;100.00;100752.84;4996065;28;19965;-61
2023/02/13 11:06:36;;;;;;;;;;;;;;;6.71;100.00;100752.78;4996373;28;20696;-61
2023/02/13 11:09:03;;;;;;;;;;;;;;;6.72;100.00;100749.41;4997258;28;20308;-60
2023/02/13 11:11:34;;;;;;;;;;;;;;;6.71;100.00;100748.53;4995811;28;20007;-62
2023/02/13 11:14:11;;;;;;;;;;;;;;;6.67;100.00;100750.94;4995266;28;19946;-62
2023/02/13 11:16:42;;;;;;;;;;;;;;;6.71;100.00;100748.53;4995506;28;20420;-61
2023/02/13 11:19:16;;;;;;;;;;;;;;;6.58;100.00;100743.88;4997209;28;19947;-62
2023/02/13 11:21:42;;;;;;;;;;;;;;;6.38;100.00;100756.03;4998517;28;20285;-60
2023/02/13 11:24:15;;;;;;;;;;;;;;;6.32;100.00;100757.53;4997421;28;19947;-60
2023/02/13 11:26:42;;;;;;;;;;;;;;;6.30;100.00;100749.81;4997593;28;19948;-60
2023/02/13 11:29:24;;;;;;;;;;;;;;;6.23;100.00;100745.34;4996805;28;19950;-61
2023/02/13 11:32:19;;;;;;;;;;;;;;;6.10;100.00;100745.78;4995771;28;20041;-61
2023/02/13 11:34:45;;;;;;;;;;;;;;;6.24;100.00;100752.16;4991733;28;19952;-61
2023/02/13 11:37:11;;;;;;;;;;;;;;;6.32;100.00;100750.72;4993185;28;19967;-61
2023/02/13 11:39:36;;;;;;;;;;;;;;;6.39;100.00;100741.59;4994303;28;19947;-61
2023/02/13 11:42:01;;;;;;;;;;;;;;;6.42;100.00;100747.66;4996990;28;19966;-59
2023/02/13 11:44:28;;;;;;;;;;;;;;;6.35;100.00;100749.97;4997411;28;19983;-60
2023/02/13 11:46:58;;;;;;;;;;;;;;;6.26;100.00;100734.38;4996857;28;20058;-59
2023/02/13 11:49:28;;;;;;;;;;;;;;;6.42;100.00;100737.47;4999245;28;19943;-61
2023/02/13 11:51:58;;;;;;;;;;;;;;;6.36;100.00;100747.47;4994957;28;19960;-60
2023/02/13 11:54:29;;;;;;;;;;;;;;;6.35;100.00;100730.47;4995348;28;20368;-61
2023/02/13 11:56:59;;;;;;;;;;;;;;;6.59;100.00;100752.41;4996489;28;19946;-61
2023/02/13 11:59:25;;;;;;;;;;;;;;;6.71;100.00;100727.28;4996546;28;19940;-62
2023/02/13 12:02:10;;;;;;;;;;;;;;;6.74;100.00;100732.50;4979197;28;19944;-59
2023/02/13 12:04:35;;;;;;;;;;;;;;;6.96;100.00;100721.25;4997230;28;19941;-62
2023/02/13 12:07:02;;;;;;;;;;;;;;;6.96;100.00;100722.09;5008818;28;20506;-60
2023/02/13 12:09:29;;;;;;;;;;;;;;;7.22;100.00;100716.06;4994321;28;19953;-60
2023/02/13 12:11:57;;;;;;;;;;;;;;;7.17;100.00;100709.94;4994228;28;20384;-62
2023/02/13 12:14:25;;;;;;;;;;;;;;;7.21;100.00;100709.22;5001581;28;19952;-60
2023/02/13 12:16:54;;;;;;;;;;;;;;;7.21;100.00;100706.66;5001142;28;20439;-60
2023/02/13 12:19:23;;;;;;;;;;;;;;;7.26;100.00;100705.09;4992057;28;20034;-60
2023/02/13 12:21:48;;;;;;;;;;;;;;;7.40;100.00;100699.50;4999705;28;20063;-61
2023/02/13 12:24:22;;;;;;;;;;;;;;;7.27;100.00;100693.22;4997574;28;19950;-61
2023/02/13 12:26:52;;;;;;;;;;;;;;;7.26;100.00;100694.91;5013987;28;19981;-60
2023/02/13 12:29:29;;;;;;;;;;;;;;;7.30;100.00;100686.50;5001444;28;20263;-60
2023/02/13 12:32:17;;;;;;;;;;;;;;;7.22;100.00;100689.66;4999646;28;20074;-59
2023/02/13 12:34:45;;;;;;;;;;;;;;;7.27;100.00;100691.53;5000112;28;19979;-58
2023/02/13 12:37:30;;;;;;;;;;;;;;;7.08;100.00;100686.78;4997361;28;19943;-62
2023/02/13 12:39:55;;;;;;;;;;;;;;;7.24;100.00;100683.81;5001753;28;19975;-58
2023/02/13 12:42:32;;;;;;;;;;;;;;;7.40;100.00;100674.00;4996685;28;19968;-58
2023/02/13 12:45:10;;;;;;;;;;;;;;;7.31;100.00;100672.94;4995898;28;20516;-59
2023/02/13 12:48:14;;;;;;;;;;;;;;;7.26;100.00;100671.94;5013864;28;19946;-59
2023/02/13 12:50:52;;;;;;;;;;;;;;;7.26;100.00;100665.97;4971188;28;20082;-60
2023/02/13 12:53:18;;;;;;;;;;;;;;;7.13;100.00;100667.31;4972478;28;20020;-59
2023/02/13 12:56:06;;;;;;;;;;;;;;;7.12;100.00;100672.41;4973066;28;20035;-57
2023/02/13 12:58:37;;;;;;;;;;;;;;;7.25;100.00;100669.38;4975098;28;20528;-58
2023/02/13 13:01:21;;;;;;;;;;;;;;;7.17;100.00;100666.59;4973870;28;19941;-59
2023/02/13 13:04:12;;;;;;;;;;;;;;;7.22;100.00;100661.63;4974670;28;20027;-60
2023/02/13 13:07:16;;;;;;;;;;;;;;;7.27;100.00;100670.25;4972479;28;19969;-59
2023/02/13 13:10:02;;;;;;;;;;;;;;;7.42;100.00;100667.28;4935811;29;19956;-61
2023/02/13 13:12:37;;;;;;;;;;;;;;;7.31;100.00;100664.41;4935426;29;20054;-60
2023/02/13 13:15:20;;;;;;;;;;;;;;;7.18;100.00;100664.91;4928650;28;19948;-59
2023/02/13 13:18:18;;;;;;;;;;;;;;;7.41;100.00;100655.31;4929197;28;20019;-59
2023/02/13 13:20:46;;;;;;;;;;;;;;;7.31;100.00;100662.72;4906219;28;19950;-59
2023/02/13 13:23:12;;;;;;;;;;;;;;;7.18;100.00;100658.13;4956506;28;19947;-58
2023/02/13 13:25:49;;;;;;;;;;;;;;;7.33;100.00;100661.09;4943604;28;20393;-58
2023/02/13 13:28:18;;;;;;;;;;;;;;;7.23;100.00;100663.34;4955085;28;20053;-58
2023/02/13 13:30:44;;;;;;;;;;;;;;;7.34;100.00;100672.19;4957077;28;20010;-57